Time;durP1;ratioP1;P1;durP2;ratioP2;P2;SDS_P1;SDS_P2;PMS_P1;PMS_P2;Temp;Humidity;BMP_temperature;BMP_pressure;BME280_temperature;BME280_humidity;BME280_pressure;Samples;Min_cycle;Max_cycle;Signal;HPM_P1;HPM_P2
2022/06/17 00:01:43;;;;;;;1.40;1.20;;;19.70;93.40;;;;;;5030681;28;20215;-77
2022/06/17 00:04:13;;;;;;;1.10;1.10;;;19.60;93.20;;;;;;5030103;28;20697;-77
2022/06/17 00:06:47;;;;;;;1.33;1.23;;;19.60;93.20;;;;;;5030290;28;20233;-77
2022/06/17 00:09:18;;;;;;;1.10;1.00;;;19.50;93.20;;;;;;5029689;28;20639;-77
2022/06/17 00:11:45;;;;;;;1.63;1.23;;;19.40;93.30;;;;;;5030258;28;20288;-77
2022/06/17 00:14:15;;;;;;;0.93;0.93;;;19.40;93.40;;;;;;5030137;28;20278;-76
2022/06/17 00:16:42;;;;;;;2.10;1.13;;;19.40;93.30;;;;;;5029969;28;20280;-77
2022/06/17 00:19:10;;;;;;;1.20;0.93;;;19.40;93.10;;;;;;5030027;28;20203;-77
2022/06/17 00:21:43;;;;;;;1.53;0.70;;;19.40;92.70;;;;;;5030028;28;20291;-76
2022/06/17 00:24:16;;;;;;;1.00;0.97;;;19.20;92.30;;;;;;5029497;28;20205;-75
2022/06/17 00:26:43;;;;;;;0.83;0.77;;;19.10;92.60;;;;;;5029712;28;20335;-76
2022/06/17 00:29:12;;;;;;;1.33;1.20;;;19.00;92.50;;;;;;5029651;28;20299;-76
2022/06/17 00:31:39;;;;;;;2.07;0.80;;;18.90;92.60;;;;;;5029763;28;20560;-76
2022/06/17 00:34:06;;;;;;;2.00;1.00;;;18.90;92.90;;;;;;5029339;28;20216;-76
2022/06/17 00:36:34;;;;;;;0.80;0.80;;;18.90;93.10;;;;;;5029531;28;20224;-76
2022/06/17 00:39:01;;;;;;;1.30;1.20;;;18.80;93.00;;;;;;5029251;28;20205;-76
2022/06/17 00:41:33;;;;;;;0.87;0.80;;;18.80;93.10;;;;;;5029610;28;20219;-77
2022/06/17 00:44:01;;;;;;;1.30;0.90;;;18.80;93.20;;;;;;5029940;28;20295;-78
2022/06/17 00:46:35;;;;;;;1.53;0.80;;;18.80;93.20;;;;;;5029687;28;20239;-78
2022/06/17 00:49:10;;;;;;;0.90;0.90;;;18.80;93.20;;;;;;5029556;28;20295;-78
2022/06/17 00:51:44;;;;;;;0.70;0.70;;;18.80;93.30;;;;;;5029745;28;20196;-76
2022/06/17 00:54:20;;;;;;;2.57;1.00;;;18.80;93.40;;;;;;5028914;28;20243;-76
2022/06/17 00:56:49;;;;;;;0.97;0.70;;;18.80;93.50;;;;;;5029449;28;20296;-76
2022/06/17 00:59:16;;;;;;;1.63;0.87;;;18.80;93.40;;;;;;5028655;28;20678;-76
2022/06/17 01:01:47;;;;;;;1.23;1.00;;;18.80;93.50;;;;;;5029287;28;20291;-77
2022/06/17 01:04:19;;;;;;;1.27;0.90;;;18.80;93.60;;;;;;5028576;28;20197;-76
2022/06/17 01:06:50;;;;;;;1.33;1.10;;;18.80;93.90;;;;;;5029239;28;20220;-76
2022/06/17 01:12:11;;;;;;;1.00;1.00;;;18.80;94.10;;;;;;5028379;28;20211;-78
2022/06/17 01:14:39;;;;;;;2.83;0.80;;;18.70;94.20;;;;;;5038846;28;20231;-78
2022/06/17 01:17:06;;;;;;;3.00;1.00;;;18.70;94.30;;;;;;5038116;28;20243;-77
2022/06/17 01:19:39;;;;;;;1.33;0.97;;;18.60;94.10;;;;;;5028565;28;20212;-77
2022/06/17 01:22:16;;;;;;;2.47;1.00;;;18.60;94.10;;;;;;5029137;28;20193;-78
2022/06/17 01:24:45;;;;;;;1.03;0.90;;;18.60;94.00;;;;;;5028406;28;20236;-78
2022/06/17 01:27:12;;;;;;;2.03;0.87;;;18.50;94.00;;;;;;5028504;28;20228;-76
2022/06/17 01:29:39;;;;;;;1.07;0.93;;;18.40;94.20;;;;;;5028673;28;20211;-76
2022/06/17 01:32:08;;;;;;;0.90;0.90;;;18.40;94.30;;;;;;5028397;28;20213;-79
2022/06/17 01:34:36;;;;;;;1.17;1.10;;;18.40;94.20;;;;;;5028230;28;20292;-77
2022/06/17 01:37:03;;;;;;;1.33;0.97;;;18.40;94.20;;;;;;5028124;28;20574;-76
2022/06/17 01:39:30;;;;;;;1.73;0.90;;;18.30;94.30;;;;;;5028313;28;20220;-76
2022/06/17 01:41:58;;;;;;;4.13;1.03;;;18.20;94.40;;;;;;5028574;28;20205;-76
2022/06/17 01:44:33;;;;;;;1.77;0.97;;;18.20;94.50;;;;;;5028272;28;20240;-76
2022/06/17 01:47:02;;;;;;;2.57;1.03;;;18.20;94.50;;;;;;5028043;28;20624;-76
2022/06/17 01:49:34;;;;;;;3.03;1.30;;;18.10;94.50;;;;;;5027962;28;20544;-76
2022/06/17 01:52:05;;;;;;;1.57;1.10;;;18.20;94.60;;;;;;5028411;28;20211;-76
2022/06/17 01:54:40;;;;;;;0.97;0.97;;;18.10;94.50;;;;;;5027967;28;20193;-76
2022/06/17 01:57:12;;;;;;;2.13;1.00;;;18.00;94.60;;;;;;5027882;28;20673;-76
2022/06/17 01:59:43;;;;;;;1.83;0.90;;;18.00;94.70;;;;;;5028003;28;20663;-76
2022/06/17 02:02:13;;;;;;;0.80;0.80;;;18.00;94.70;;;;;;5028149;28;20215;-76
2022/06/17 02:04:45;;;;;;;2.37;0.93;;;18.00;94.80;;;;;;5027927;28;20209;-77
2022/06/17 02:07:18;;;;;;;1.27;1.00;;;17.90;94.80;;;;;;5028168;28;20219;-79
2022/06/17 02:09:46;;;;;;;2.20;1.10;;;17.90;94.90;;;;;;5028232;28;20197;-77
2022/06/17 02:12:17;;;;;;;1.67;1.00;;;17.90;95.00;;;;;;5028319;28;20215;-78
2022/06/17 02:14:45;;;;;;;1.13;0.93;;;17.90;94.80;;;;;;5028299;28;20234;-78
2022/06/17 02:17:12;;;;;;;2.03;1.00;;;17.80;94.90;;;;;;5027312;28;20236;-77
2022/06/17 02:19:47;;;;;;;1.13;0.90;;;17.80;94.90;;;;;;5028073;28;20279;-77
2022/06/17 02:22:17;;;;;;;2.37;1.10;;;17.70;95.00;;;;;;5028008;28;20227;-76
2022/06/17 02:24:45;;;;;;;1.92;0.90;;;17.70;95.00;;;;;;5027449;28;20527;-75
2022/06/17 02:27:15;;;;;;;2.80;1.00;;;17.70;95.10;;;;;;5027471;28;20601;-75
2022/06/17 02:29:44;;;;;;;1.10;0.80;;;17.60;95.20;;;;;;5009930;28;20205;-74
2022/06/17 02:32:12;;;;;;;1.33;0.80;;;17.60;95.30;;;;;;5025726;28;20209;-74
2022/06/17 02:34:49;;;;;;;0.93;0.80;;;17.50;95.40;;;;;;5025474;28;20577;-74
2022/06/17 02:37:17;;;;;;;1.33;1.00;;;17.50;95.50;;;;;;5021017;28;20319;-73
2022/06/17 02:39:48;;;;;;;0.87;0.83;;;17.40;95.50;;;;;;5025544;28;20207;-75
2022/06/17 02:42:21;;;;;;;1.20;1.10;;;17.40;95.60;;;;;;5025927;28;20197;-74
2022/06/17 02:44:50;;;;;;;2.80;1.17;;;17.30;95.70;;;;;;5026218;28;20662;-75
2022/06/17 02:47:17;;;;;;;2.10;0.80;;;17.40;95.90;;;;;;5026190;28;20224;-78
2022/06/17 02:49:46;;;;;;;0.90;0.90;;;17.40;95.80;;;;;;5025857;28;20395;-78
2022/06/17 02:52:17;;;;;;;3.63;1.40;;;17.30;95.80;;;;;;5025625;28;20211;-77
2022/06/17 02:54:49;;;;;;;1.33;1.10;;;17.30;96.00;;;;;;5025208;28;20197;-75
2022/06/17 02:57:22;;;;;;;1.33;1.00;;;17.30;96.10;;;;;;5025764;28;20216;-75
2022/06/17 02:59:52;;;;;;;1.33;0.93;;;17.30;96.20;;;;;;5027461;28;20821;-75
2022/06/17 03:02:25;;;;;;;5.67;1.20;;;17.30;96.10;;;;;;5028862;28;20204;-73
2022/06/17 03:04:53;;;;;;;2.63;1.40;;;17.30;96.20;;;;;;5028446;28;20205;-73
2022/06/17 03:07:22;;;;;;;1.60;1.10;;;17.30;96.10;;;;;;5028742;28;20229;-73
2022/06/17 03:09:50;;;;;;;1.57;1.10;;;17.30;96.00;;;;;;5028037;28;20667;-73
2022/06/17 03:12:21;;;;;;;1.20;1.10;;;17.30;96.10;;;;;;5028612;28;20254;-74
2022/06/17 03:14:52;;;;;;;1.33;1.10;;;17.30;96.30;;;;;;5030706;28;20236;-74
2022/06/17 03:17:23;;;;;;;1.90;1.00;;;17.20;96.20;;;;;;5030198;28;20235;-74
2022/06/17 03:19:52;;;;;;;0.97;0.90;;;17.20;96.30;;;;;;5030952;28;20213;-73
2022/06/17 03:22:19;;;;;;;1.17;1.17;;;17.20;96.40;;;;;;5030832;28;20208;-73
2022/06/17 03:24:52;;;;;;;1.20;1.10;;;17.20;96.60;;;;;;5030688;28;20287;-73
2022/06/17 03:27:26;;;;;;;1.43;1.10;;;17.10;96.50;;;;;;5030147;28;20682;-74
2022/06/17 03:29:56;;;;;;;1.50;1.20;;;17.10;96.70;;;;;;5030537;28;20772;-74
2022/06/17 03:32:27;;;;;;;1.23;1.20;;;17.10;96.90;;;;;;5030532;28;21117;-74
2022/06/17 03:34:55;;;;;;;1.97;1.30;;;17.10;96.90;;;;;;5030988;28;20278;-74
2022/06/17 03:37:27;;;;;;;3.60;1.50;;;17.10;96.90;;;;;;5030667;28;20213;-73
2022/06/17 03:39:58;;;;;;;1.27;1.10;;;17.10;96.90;;;;;;5030500;28;20189;-73
2022/06/17 03:42:32;;;;;;;1.30;1.20;;;17.10;96.70;;;;;;5030703;28;20196;-73
2022/06/17 03:45:02;;;;;;;4.30;1.20;;;17.10;96.70;;;;;;5030771;28;20216;-73
2022/06/17 03:47:38;;;;;;;1.20;1.10;;;17.20;96.70;;;;;;5030498;28;20217;-74
2022/06/17 03:50:08;;;;;;;3.80;1.70;;;17.30;96.70;;;;;;5030199;28;20204;-73
2022/06/17 03:52:41;;;;;;;2.37;1.13;;;17.20;96.80;;;;;;5030753;28;20300;-74
2022/06/17 03:55:14;;;;;;;1.43;1.13;;;17.20;96.90;;;;;;5029878;28;20207;-74
2022/06/17 03:57:44;;;;;;;1.70;1.20;;;17.20;96.90;;;;;;5030403;28;20663;-73
2022/06/17 04:00:17;;;;;;;2.63;1.30;;;17.20;97.00;;;;;;5030194;28;20197;-73
2022/06/17 04:02:44;;;;;;;1.63;1.30;;;17.20;97.00;;;;;;5030481;28;20193;-73
2022/06/17 04:05:15;;;;;;;2.47;1.27;;;17.30;96.90;;;;;;5029868;28;20205;-73
2022/06/17 04:07:42;;;;;;;2.50;1.40;;;17.20;97.00;;;;;;5029815;28;20682;-74
2022/06/17 04:10:11;;;;;;;1.37;1.27;;;17.20;97.30;;;;;;5029565;28;20209;-73
2022/06/17 04:12:38;;;;;;;6.87;2.13;;;17.20;97.30;;;;;;5029415;28;20215;-74
2022/06/17 04:15:17;;;;;;;3.77;1.40;;;17.20;97.40;;;;;;5029621;28;20229;-73
2022/06/17 04:17:46;;;;;;;2.70;1.50;;;17.20;97.40;;;;;;5013976;28;20288;-74
2022/06/17 04:20:29;;;;;;;1.60;1.50;;;17.20;97.40;;;;;;5013854;28;20217;-74
2022/06/17 04:23:00;;;;;;;2.60;1.50;;;17.20;97.50;;;;;;5023847;28;20201;-74
2022/06/17 04:25:37;;;;;;;2.60;1.57;;;17.10;97.60;;;;;;5029757;28;20243;-74
2022/06/17 04:28:07;;;;;;;1.90;1.73;;;17.00;97.90;;;;;;5029855;28;20220;-74
2022/06/17 04:30:42;;;;;;;2.00;1.60;;;16.90;98.10;;;;;;5029885;28;20550;-74
2022/06/17 04:33:18;;;;;;;1.70;1.40;;;17.00;98.20;;;;;;5029734;28;20578;-74
2022/06/17 04:35:45;;;;;;;1.40;1.30;;;17.00;98.30;;;;;;5029679;28;20620;-74
2022/06/17 04:38:12;;;;;;;2.47;1.73;;;17.00;98.30;;;;;;5028995;28;20212;-74
2022/06/17 04:40:42;;;;;;;1.67;1.37;;;17.10;98.50;;;;;;5029742;28;20219;-74
2022/06/17 04:43:17;;;;;;;1.77;1.67;;;17.10;98.90;;;;;;5029574;28;20212;-74
2022/06/17 04:45:54;;;;;;;1.33;1.33;;;17.10;98.50;;;;;;5029540;28;20204;-74
2022/06/17 04:48:21;;;;;;;1.50;1.40;;;17.10;98.60;;;;;;5028807;28;20224;-73
2022/06/17 04:50:48;;;;;;;1.60;1.50;;;17.00;98.70;;;;;;5029121;28;20720;-74
2022/06/17 04:53:16;;;;;;;2.03;1.43;;;17.00;98.90;;;;;;5028837;28;20205;-73
2022/06/17 04:55:45;;;;;;;1.77;1.63;;;16.90;99.10;;;;;;5029429;28;20215;-74
2022/06/17 04:58:13;;;;;;;3.43;1.80;;;16.90;99.30;;;;;;5028851;28;20217;-74
2022/06/17 05:00:46;;;;;;;1.70;1.60;;;17.00;99.50;;;;;;5028919;28;20682;-73
2022/06/17 05:03:13;;;;;;;3.27;2.07;;;17.00;99.50;;;;;;5028996;28;20204;-73
2022/06/17 05:05:42;;;;;;;2.47;1.97;;;17.10;99.50;;;;;;5028908;28;20213;-73
2022/06/17 05:08:13;;;;;;;1.90;1.80;;;17.10;99.70;;;;;;5028598;28;20232;-73
2022/06/17 05:10:44;;;;;;;5.87;2.00;;;17.10;99.70;;;;;;5016206;28;20683;-73
2022/06/17 05:13:16;;;;;;;2.20;2.10;;;17.00;99.90;;;;;;5008743;28;20721;-74
2022/06/17 05:15:43;;;;;;;5.03;2.20;;;17.10;99.90;;;;;;5016609;28;20644;-74
2022/06/17 05:18:11;;;;;;;2.60;2.40;;;17.00;99.90;;;;;;5028652;28;20197;-73
2022/06/17 05:20:38;;;;;;;3.07;2.67;;;16.90;99.90;;;;;;5028769;28;20204;-73
2022/06/17 05:23:07;;;;;;;4.70;2.20;;;17.00;99.90;;;;;;5028396;28;20599;-73
2022/06/17 05:25:36;;;;;;;4.23;2.53;;;17.00;99.90;;;;;;5028538;28;20236;-73
2022/06/17 05:28:03;;;;;;;2.53;2.20;;;17.00;99.90;;;;;;5028650;28;20619;-74
2022/06/17 05:30:33;;;;;;;2.50;2.30;;;17.10;99.90;;;;;;5028464;28;20205;-74
2022/06/17 05:33:00;;;;;;;8.10;2.90;;;17.20;99.90;;;;;;5028600;28;20205;-74
2022/06/17 05:35:28;;;;;;;6.07;3.10;;;17.20;99.90;;;;;;5028269;28;20215;-74
2022/06/17 05:37:55;;;;;;;3.83;3.20;;;17.20;99.90;;;;;;5028323;28;20213;-74
2022/06/17 05:40:23;;;;;;;5.83;3.40;;;17.30;99.90;;;;;;5027773;28;20211;-73
2022/06/17 05:42:50;;;;;;;4.30;3.00;;;17.30;99.90;;;;;;5028543;28;20266;-74
2022/06/17 05:45:19;;;;;;;5.57;3.17;;;17.30;99.90;;;;;;5028150;28;20211;-74
2022/06/17 05:47:46;;;;;;;4.53;3.13;;;17.50;99.90;;;;;;5028298;28;20204;-74
2022/06/17 05:50:13;;;;;;;3.90;3.17;;;17.60;99.90;;;;;;5027618;28;20675;-74
2022/06/17 05:52:52;;;;;;;3.57;3.13;;;17.70;99.90;;;;;;5028333;28;20212;-74
2022/06/17 05:55:20;;;;;;;4.33;3.23;;;17.80;99.90;;;;;;5027529;28;20200;-74
2022/06/17 05:57:47;;;;;;;4.90;3.60;;;17.80;99.90;;;;;;5027999;28;20295;-73
2022/06/17 06:00:16;;;;;;;3.63;2.93;;;17.80;99.90;;;;;;5027913;28;20239;-73
2022/06/17 06:02:43;;;;;;;4.07;3.40;;;17.80;99.90;;;;;;5028208;28;20263;-74
2022/06/17 06:05:14;;;;;;;5.37;3.20;;;17.70;99.90;;;;;;5027659;28;20204;-73
2022/06/17 06:07:41;;;;;;;5.30;3.33;;;17.60;99.90;;;;;;5028220;28;20213;-74
2022/06/17 06:10:11;;;;;;;5.77;3.00;;;17.60;99.90;;;;;;5027759;28;20232;-74
2022/06/17 06:12:57;;;;;;;4.17;2.90;;;17.70;99.90;;;;;;5027798;28;20696;-74
2022/06/17 06:15:26;;;;;;;4.43;3.30;;;17.70;99.90;;;;;;5027371;28;20240;-73
2022/06/17 06:17:54;;;;;;;4.90;3.20;;;17.80;99.90;;;;;;5015806;28;20209;-74
2022/06/17 06:20:20;;;;;;;5.93;3.17;;;17.80;99.90;;;;;;5027883;28;20216;-74
2022/06/17 06:22:47;;;;;;;3.73;3.10;;;17.90;99.90;;;;;;5028052;28;20209;-74
2022/06/17 06:25:18;;;;;;;6.27;3.30;;;17.90;99.90;;;;;;5027447;28;20986;-74
2022/06/17 06:27:44;;;;;;;7.40;3.40;;;17.90;99.90;;;;;;5028271;28;20200;-74
2022/06/17 06:30:18;;;;;;;6.60;3.30;;;17.80;99.90;;;;;;5027430;28;20710;-74
2022/06/17 06:32:49;;;;;;;5.10;3.20;;;17.90;99.90;;;;;;5027858;28;20219;-74
2022/06/17 06:35:17;;;;;;;6.50;2.90;;;17.90;99.90;;;;;;5030217;28;20295;-74
2022/06/17 06:37:44;;;;;;;4.27;3.17;;;17.90;99.90;;;;;;5031861;28;20220;-74
2022/06/17 06:40:12;;;;;;;7.40;3.00;;;18.00;99.90;;;;;;5031270;28;20216;-74
2022/06/17 06:42:40;;;;;;;14.10;3.23;;;18.10;99.90;;;;;;5031638;28;20216;-74
2022/06/17 06:45:12;;;;;;;4.33;3.20;;;18.20;99.90;;;;;;5031408;28;20209;-74
2022/06/17 06:47:38;;;;;;;4.03;3.47;;;18.20;99.90;;;;;;5031646;28;20567;-74
2022/06/17 06:50:08;;;;;;;3.03;2.73;;;18.30;99.90;;;;;;5031518;28;20240;-74
2022/06/17 06:52:35;;;;;;;7.80;3.10;;;18.50;99.90;;;;;;5031702;28;20212;-74
2022/06/17 06:55:02;;;;;;;3.70;2.90;;;18.60;99.90;;;;;;5025034;28;20217;-74
2022/06/17 06:57:29;;;;;;;6.70;3.13;;;18.70;99.90;;;;;;5011638;28;20216;-73
2022/06/17 07:00:01;;;;;;;5.70;3.20;;;18.70;99.90;;;;;;5011574;28;20224;-74
2022/06/17 07:02:27;;;;;;;3.47;3.00;;;18.70;99.90;;;;;;5017476;28;20231;-74
2022/06/17 07:04:54;;;;;;;3.93;2.63;;;18.70;99.90;;;;;;5031039;28;20219;-74
2022/06/17 07:07:21;;;;;;;4.40;3.13;;;18.80;99.90;;;;;;5030994;28;20216;-74
2022/06/17 07:09:48;;;;;;;4.97;3.33;;;18.80;99.90;;;;;;5030972;28;20236;-74
2022/06/17 07:12:15;;;;;;;4.93;3.00;;;18.90;99.80;;;;;;5031237;28;20778;-74
2022/06/17 07:14:41;;;;;;;6.43;3.00;;;19.00;99.80;;;;;;5031028;28;20260;-74
2022/06/17 07:17:11;;;;;;;3.07;2.50;;;19.00;99.70;;;;;;5019750;28;20239;-74
2022/06/17 07:19:38;;;;;;;5.67;2.67;;;19.10;99.50;;;;;;5024212;28;20204;-74
2022/06/17 07:22:05;;;;;;;5.30;2.80;;;19.20;99.20;;;;;;5030990;28;20212;-74
2022/06/17 07:24:32;;;;;;;5.03;2.77;;;19.20;99.30;;;;;;5030544;28;20205;-74
2022/06/17 07:26:59;;;;;;;5.00;2.90;;;19.30;99.30;;;;;;5030954;28;20212;-74
2022/06/17 07:29:26;;;;;;;5.10;3.00;;;19.30;99.20;;;;;;5030251;28;20232;-74
2022/06/17 07:31:53;;;;;;;3.33;2.60;;;19.30;98.40;;;;;;5030558;28;20774;-74
2022/06/17 07:34:21;;;;;;;6.20;2.70;;;19.30;98.70;;;;;;5030079;28;20299;-74
2022/06/17 07:42:16;;;;;;;3.30;2.60;;;19.30;98.20;;;;;;5030488;28;20231;-74
2022/06/17 07:44:43;;;;;;;2.63;2.43;;;19.40;98.20;;;;;;5030497;28;20230;-74
2022/06/17 07:47:14;;;;;;;7.27;2.47;;;19.30;97.60;;;;;;5029245;28;20212;-74
2022/06/17 07:49:43;;;;;;;3.30;2.53;;;19.30;97.90;;;;;;5030140;28;20699;-74
2022/06/17 07:52:11;;;;;;;2.87;2.13;;;19.20;97.90;;;;;;5030263;28;20211;-74
2022/06/17 07:54:38;;;;;;;4.60;2.77;;;19.30;98.20;;;;;;5030646;28;20304;-74
2022/06/17 07:57:06;;;;;;;3.50;2.63;;;19.40;98.10;;;;;;5030404;28;20205;-73
2022/06/17 07:59:32;;;;;;;4.20;2.40;;;19.50;98.20;;;;;;5030065;28;20213;-74
2022/06/17 08:01:59;;;;;;;4.93;2.53;;;19.50;98.20;;;;;;5030013;28;20231;-74
2022/06/17 08:04:27;;;;;;;3.37;2.50;;;19.60;97.80;;;;;;5030000;28;20324;-74
2022/06/17 08:06:56;;;;;;;3.00;2.10;;;19.60;97.60;;;;;;5030335;28;20215;-74
2022/06/17 08:09:26;;;;;;;3.87;2.00;;;19.70;97.40;;;;;;5029780;28;20228;-74
2022/06/17 08:11:53;;;;;;;2.63;2.10;;;19.80;97.50;;;;;;5029624;28;20318;-74
2022/06/17 08:14:20;;;;;;;3.73;2.03;;;19.90;96.90;;;;;;5029954;28;20229;-74
2022/06/17 08:16:47;;;;;;;3.83;2.13;;;19.90;97.10;;;;;;5021853;28;20251;-74
2022/06/17 08:19:15;;;;;;;2.10;2.00;;;20.00;97.40;;;;;;5019744;28;20308;-74
2022/06/17 08:21:42;;;;;;;10.67;2.60;;;20.10;97.10;;;;;;5029488;28;20685;-74
2022/06/17 08:24:10;;;;;;;2.20;2.00;;;20.10;96.90;;;;;;5029406;28;20214;-73
2022/06/17 08:26:37;;;;;;;2.10;1.90;;;20.20;96.30;;;;;;5029959;28;20204;-73
2022/06/17 08:29:04;;;;;;;2.37;2.00;;;20.20;95.60;;;;;;5029217;28;20694;-74
2022/06/17 08:31:31;;;;;;;3.47;1.80;;;20.20;95.30;;;;;;5029443;28;20651;-73
2022/06/17 08:33:57;;;;;;;2.10;1.90;;;20.20;95.40;;;;;;5029688;28;20213;-73
2022/06/17 08:36:27;;;;;;;3.27;1.73;;;20.20;95.80;;;;;;5029489;28;20216;-73
2022/06/17 08:38:59;;;;;;;1.80;1.70;;;20.30;95.80;;;;;;5029149;28;20762;-74
2022/06/17 08:41:30;;;;;;;2.63;1.70;;;20.30;94.90;;;;;;5029511;28;20197;-74
2022/06/17 08:44:22;;;;;;;4.60;1.70;;;20.40;94.80;;;;;;5029650;28;20189;-74
2022/06/17 08:47:05;;;;;;;6.70;2.20;;;20.50;94.70;;;;;;5029539;28;20617;-74
2022/06/17 08:49:54;;;;;;;5.33;2.23;;;20.50;94.90;;;;;;5028685;28;20715;-73
2022/06/17 08:52:34;;;;;;;2.40;1.80;;;20.60;95.20;;;;;;5029235;28;20291;-74
2022/06/17 08:55:08;;;;;;;1.90;1.80;;;20.70;94.70;;;;;;5029053;28;20213;-74
2022/06/17 08:57:43;;;;;;;4.60;1.83;;;20.70;94.90;;;;;;5028890;28;20316;-73
2022/06/17 09:00:13;;;;;;;2.77;1.90;;;20.90;94.60;;;;;;5029055;28;20624;-73
2022/06/17 09:03:06;;;;;;;3.10;1.80;;;20.90;94.00;;;;;;5029407;28;20197;-74
2022/06/17 09:05:44;;;;;;;3.43;1.57;;;21.00;94.10;;;;;;5025805;28;20292;-74
2022/06/17 09:08:27;;;;;;;1.50;1.40;;;21.10;93.60;;;;;;5028389;28;20212;-74
2022/06/17 09:11:07;;;;;;;1.07;0.70;;;21.20;92.20;;;;;;5029011;28;20221;-74
2022/06/17 09:13:47;;;;;;;5.32;1.25;;;21.20;91.10;;;;;;5028705;28;20311;-74
2022/06/17 09:16:22;;;;;;;2.67;1.10;;;21.20;91.00;;;;;;5024254;28;20316;-74
2022/06/17 09:18:55;;;;;;;19.43;2.47;;;21.30;91.10;;;;;;5015342;28;20219;-74
2022/06/17 09:21:30;;;;;;;1.33;1.10;;;21.30;91.40;;;;;;5028432;28;20204;-74
2022/06/17 09:24:02;;;;;;;2.25;1.42;;;21.40;90.60;;;;;;5028148;28;20697;-74
2022/06/17 09:26:32;;;;;;;0.88;0.88;;;21.40;90.70;;;;;;5028336;28;20637;-74
2022/06/17 09:29:13;;;;;;;0.70;0.70;;;21.50;91.10;;;;;;5028750;28;20710;-74
2022/06/17 09:31:45;;;;;;;1.02;0.90;;;21.60;88.60;;;;;;5028646;28;20275;-73
2022/06/17 09:34:17;;;;;;;1.05;0.90;;;21.70;89.70;;;;;;5028427;28;20193;-73
2022/06/17 09:36:49;;;;;;;1.85;1.08;;;21.80;90.40;;;;;;5028301;28;20239;-74
2022/06/17 09:39:20;;;;;;;1.50;1.10;;;21.80;90.80;;;;;;5028164;28;20361;-73
2022/06/17 09:41:53;;;;;;;1.52;1.30;;;21.90;90.60;;;;;;5028128;28;20203;-71
2022/06/17 09:44:24;;;;;;;1.45;1.30;;;21.90;90.90;;;;;;5028129;28;20224;-71
2022/06/17 09:46:55;;;;;;;1.38;1.30;;;21.90;90.60;;;;;;5028096;28;20655;-71
2022/06/17 09:49:26;;;;;;;2.20;0.93;;;22.00;90.00;;;;;;5028156;28;20593;-71
2022/06/17 09:52:01;;;;;;;2.20;1.23;;;22.10;89.00;;;;;;5028192;28;20236;-71
2022/06/17 09:54:34;;;;;;;1.88;1.02;;;22.20;89.70;;;;;;5027755;28;20321;-71
2022/06/17 09:57:08;;;;;;;2.08;1.17;;;22.20;90.00;;;;;;5027933;28;20219;-71
2022/06/17 09:59:40;;;;;;;1.30;0.85;;;22.20;89.00;;;;;;5028387;28;20203;-71
2022/06/17 10:02:20;;;;;;;1.13;1.05;;;22.30;89.90;;;;;;5028270;28;20197;-71
2022/06/17 10:04:47;;;;;;;2.57;1.30;;;22.40;89.40;;;;;;5008432;28;20204;-71
2022/06/17 10:07:21;;;;;;;1.30;1.10;;;22.50;89.60;;;;;;5008487;28;20201;-71
2022/06/17 10:10:01;;;;;;;1.23;1.13;;;22.50;90.00;;;;;;5007470;28;20234;-71
2022/06/17 10:12:37;;;;;;;1.20;1.20;;;22.50;89.00;;;;;;5008237;28;20197;-71
2022/06/17 10:15:22;;;;;;;2.40;1.30;;;22.50;89.00;;;;;;5008255;28;20220;-71
2022/06/17 10:20:50;;;;;;;1.20;1.10;;;22.60;88.70;;;;;;5000873;28;20213;-71
2022/06/17 10:23:27;;;;;;;1.75;1.20;;;22.60;89.10;;;;;;5024387;28;20208;-71
2022/06/17 10:26:08;;;;;;;0.85;0.85;;;22.80;89.40;;;;;;5028183;28;20215;-71
2022/06/17 10:29:09;;;;;;;0.90;0.90;;;23.00;87.60;;;;;;5027734;28;20949;-71
2022/06/17 10:31:40;;;;;;;2.20;1.25;;;23.10;86.50;;;;;;5027377;28;20212;-71
2022/06/17 10:34:13;;;;;;;4.55;1.45;;;23.30;86.50;;;;;;5027750;28;20224;-71
2022/06/17 10:36:41;;;;;;;1.85;1.20;;;23.40;86.90;;;;;;5027798;28;20307;-72
2022/06/17 10:39:10;;;;;;;3.17;1.20;;;23.60;86.70;;;;;;5027161;28;20750;-71
2022/06/17 10:41:38;;;;;;;1.88;1.50;;;23.70;86.90;;;;;;5027823;28;20217;-71
2022/06/17 10:44:08;;;;;;;4.10;1.50;;;23.90;86.20;;;;;;5027799;28;20303;-71
2022/06/17 10:46:39;;;;;;;1.00;1.00;;;24.00;85.40;;;;;;5027969;28;20189;-71
2022/06/17 10:49:13;;;;;;;6.50;2.20;;;24.00;85.90;;;;;;5027744;28;20205;-71
2022/06/17 10:51:41;;;;;;;4.60;1.20;;;24.10;86.10;;;;;;5027725;28;20286;-71
2022/06/17 10:54:18;;;;;;;6.13;1.63;;;24.10;86.40;;;;;;5027185;28;20905;-71
2022/06/17 10:56:54;;;;;;;5.03;1.13;;;24.30;85.70;;;;;;5027854;28;20224;-71
2022/06/17 10:59:33;;;;;;;0.77;0.77;;;24.40;84.40;;;;;;5027485;28;20235;-71
2022/06/17 11:02:01;;;;;;;1.95;1.10;;;24.50;81.70;;;;;;5027760;28;20197;-71
2022/06/17 11:04:31;;;;;;;2.65;1.33;;;24.60;81.90;;;;;;5027467;28;20215;-71
2022/06/17 11:07:01;;;;;;;2.60;1.33;;;24.60;81.30;;;;;;5027473;28;20219;-71
2022/06/17 11:09:32;;;;;;;2.42;1.00;;;24.70;81.40;;;;;;5027291;28;20199;-71
2022/06/17 11:12:06;;;;;;;3.95;1.17;;;24.80;81.70;;;;;;5027674;28;20209;-71
2022/06/17 11:14:42;;;;;;;3.25;1.25;;;24.80;81.60;;;;;;5027286;28;20232;-71
2022/06/17 11:17:18;;;;;;;1.70;1.13;;;24.80;81.30;;;;;;5016178;28;20699;-71
2022/06/17 11:19:46;;;;;;;1.33;0.95;;;24.80;80.70;;;;;;5025299;28;20207;-71
2022/06/17 11:22:30;;;;;;;1.70;1.40;;;24.90;81.70;;;;;;5030963;28;20217;-71
2022/06/17 11:25:00;;;;;;;2.03;1.40;;;25.10;81.50;;;;;;5030501;28;20292;-71
2022/06/17 11:27:31;;;;;;;1.30;1.20;;;25.20;80.10;;;;;;5030994;28;20212;-71
2022/06/17 11:30:21;;;;;;;0.77;0.77;;;25.40;80.60;;;;;;5030902;28;20217;-72
2022/06/17 11:32:50;;;;;;;2.13;1.52;;;25.60;79.70;;;;;;5030645;28;20205;-71
2022/06/17 11:35:21;;;;;;;42.60;5.28;;;25.70;78.60;;;;;;5030626;28;20224;-71
2022/06/17 11:37:50;;;;;;;1.27;0.90;;;25.90;77.50;;;;;;5030733;28;20208;-71
2022/06/17 11:40:19;;;;;;;0.95;0.90;;;26.10;76.70;;;;;;5030414;28;20219;-71
2022/06/17 11:42:49;;;;;;;0.68;0.68;;;26.20;76.60;;;;;;5030615;28;20240;-71
2022/06/17 11:45:19;;;;;;;2.35;0.80;;;26.30;77.10;;;;;;5030500;28;20208;-71
2022/06/17 11:47:52;;;;;;;1.40;0.90;;;26.50;76.10;;;;;;5030564;28;20212;-71
2022/06/17 11:50:24;;;;;;;2.28;1.10;;;26.50;75.60;;;;;;5029711;28;20279;-71
2022/06/17 11:53:00;;;;;;;0.85;0.77;;;26.50;75.30;;;;;;5030359;28;20640;-71
2022/06/17 11:55:29;;;;;;;1.92;0.88;;;26.60;75.20;;;;;;5030256;28;20203;-71
2022/06/17 11:57:56;;;;;;;1.05;1.05;;;26.60;75.90;;;;;;5030396;28;20205;-71
2022/06/17 12:00:28;;;;;;;0.90;0.90;;;26.70;76.10;;;;;;5029963;28;21171;-71
2022/06/17 12:02:59;;;;;;;1.98;1.10;;;26.70;76.10;;;;;;5030654;28;20193;-71
2022/06/17 12:05:29;;;;;;;1.77;1.00;;;26.80;76.90;;;;;;5030175;28;20219;-71
2022/06/17 12:08:00;;;;;;;1.27;1.17;;;26.90;75.50;;;;;;5030253;28;20205;-71
2022/06/17 12:10:35;;;;;;;5.57;2.13;;;26.90;76.60;;;;;;5030064;28;20225;-71
2022/06/17 12:13:15;;;;;;;0.90;0.90;;;27.10;77.00;;;;;;5030137;28;20224;-71
2022/06/17 12:15:45;;;;;;;1.25;1.20;;;27.20;75.70;;;;;;5029650;28;21004;-71
2022/06/17 12:18:19;;;;;;;2.38;1.40;;;27.40;75.50;;;;;;5011430;28;20325;-71
2022/06/17 12:20:58;;;;;;;2.75;1.17;;;27.60;75.10;;;;;;5029533;28;20201;-71
2022/06/17 12:23:30;;;;;;;1.08;1.08;;;27.70;74.70;;;;;;5029410;28;20668;-71
2022/06/17 12:26:00;;;;;;;1.65;1.05;;;27.90;75.80;;;;;;5029984;28;20254;-72
2022/06/17 12:28:36;;;;;;;1.80;1.10;;;27.80;74.70;;;;;;5029619;28;20251;-71
2022/06/17 12:31:12;;;;;;;1.88;0.90;;;27.80;74.90;;;;;;5029426;28;20224;-72
2022/06/17 12:33:46;;;;;;;3.05;1.38;;;27.90;74.90;;;;;;5029126;28;20208;-72
2022/06/17 12:36:21;;;;;;;2.50;1.17;;;28.00;74.10;;;;;;5028625;28;20193;-71
2022/06/17 12:38:56;;;;;;;3.42;1.17;;;27.90;76.00;;;;;;5009717;28;20202;-71
2022/06/17 12:41:30;;;;;;;2.10;1.08;;;27.80;73.80;;;;;;5026932;28;20626;-71
2022/06/17 12:44:17;;;;;;;2.35;1.13;;;27.70;73.90;;;;;;5007884;28;20197;-71
2022/06/17 12:46:50;;;;;;;1.75;1.10;;;27.70;75.20;;;;;;5023637;28;20209;-71
2022/06/17 12:55:14;;;;;;;1.52;1.30;;;27.70;73.90;;;;;;5026951;28;20219;-71
2022/06/17 12:57:48;;;;;;;3.65;1.20;;;27.60;73.20;;;;;;5027056;28;20690;-70
2022/06/17 13:00:20;;;;;;;4.05;1.42;;;27.50;74.00;;;;;;5026812;28;20201;-70
2022/06/17 13:03:14;;;;;;;3.60;1.40;;;27.40;75.00;;;;;;5026373;28;20279;-71
2022/06/17 13:05:44;;;;;;;2.40;1.27;;;27.30;75.30;;;;;;5026541;28;20197;-71
2022/06/17 13:08:29;;;;;;;2.90;1.50;;;27.40;75.50;;;;;;5026487;28;20647;-70
2022/06/17 13:11:04;;;;;;;2.17;1.35;;;27.50;75.20;;;;;;5026490;28;20224;-71
2022/06/17 13:14:00;;;;;;;1.50;1.40;;;27.60;75.40;;;;;;5026348;28;20286;-71
2022/06/17 13:16:32;;;;;;;1.65;1.40;;;27.70;74.60;;;;;;5009141;28;20742;-71
2022/06/17 13:19:07;;;;;;;2.45;1.50;;;27.80;74.80;;;;;;5026294;28;20219;-71
2022/06/17 13:21:41;;;;;;;4.18;1.13;;;27.90;74.00;;;;;;5025721;28;20203;-71
2022/06/17 13:24:18;;;;;;;2.45;1.45;;;27.80;73.90;;;;;;5026783;28;20207;-70